sensor_id;sensor_type;location;lat;lon;timestamp;P1;durP1;ratioP1;P2;durP2;ratioP2
80307;SDS011;69616;43.522;1.348;2024-03-23T00:54:21;14.13;;;7.93;;
80307;SDS011;69616;43.522;1.348;2024-03-23T00:56:47;15.87;;;9.33;;
80307;SDS011;69616;43.522;1.348;2024-03-23T00:59:12;15.37;;;7.83;;
80307;SDS011;69616;43.522;1.348;2024-03-23T01:01:38;15.90;;;8.67;;
80307;SDS011;69616;43.522;1.348;2024-03-23T01:04:04;14.90;;;8.25;;
80307;SDS011;69616;43.522;1.348;2024-03-23T01:06:29;15.07;;;7.80;;
80307;SDS011;69616;43.522;1.348;2024-03-23T01:08:55;13.80;;;7.83;;
80307;SDS011;69616;43.522;1.348;2024-03-23T01:11:20;16.73;;;7.93;;
80307;SDS011;69616;43.522;1.348;2024-03-23T01:13:45;17.07;;;8.27;;
80307;SDS011;69616;43.522;1.348;2024-03-23T01:16:11;18.27;;;8.25;;
80307;SDS011;69616;43.522;1.348;2024-03-23T01:18:37;15.87;;;8.60;;
80307;SDS011;69616;43.522;1.348;2024-03-23T01:21:02;16.42;;;8.10;;
80307;SDS011;69616;43.522;1.348;2024-03-23T01:23:28;16.00;;;8.10;;
80307;SDS011;69616;43.522;1.348;2024-03-23T01:25:54;17.93;;;8.27;;
80307;SDS011;69616;43.522;1.348;2024-03-23T01:28:22;18.93;;;9.03;;
80307;SDS011;69616;43.522;1.348;2024-03-23T01:30:48;17.33;;;8.73;;
80307;SDS011;69616;43.522;1.348;2024-03-23T01:33:14;18.23;;;9.23;;
80307;SDS011;69616;43.522;1.348;2024-03-23T01:35:39;17.80;;;8.85;;
80307;SDS011;69616;43.522;1.348;2024-03-23T01:38:05;19.57;;;7.93;;
80307;SDS011;69616;43.522;1.348;2024-03-23T01:40:30;15.70;;;7.87;;
80307;SDS011;69616;43.522;1.348;2024-03-23T01:43:02;17.23;;;8.47;;
80307;SDS011;69616;43.522;1.348;2024-03-23T01:45:30;16.92;;;7.60;;
80307;SDS011;69616;43.522;1.348;2024-03-23T01:47:56;19.90;;;9.18;;
80307;SDS011;69616;43.522;1.348;2024-03-23T01:50:22;14.80;;;8.30;;
80307;SDS011;69616;43.522;1.348;2024-03-23T01:52:48;15.50;;;8.00;;
80307;SDS011;69616;43.522;1.348;2024-03-23T01:55:15;15.65;;;7.68;;
80307;SDS011;69616;43.522;1.348;2024-03-23T01:57:41;17.63;;;7.95;;
80307;SDS011;69616;43.522;1.348;2024-03-23T02:00:07;17.03;;;7.07;;
80307;SDS011;69616;43.522;1.348;2024-03-23T02:02:34;15.20;;;6.45;;
80307;SDS011;69616;43.522;1.348;2024-03-23T02:04:59;11.50;;;6.20;;
80307;SDS011;69616;43.522;1.348;2024-03-23T02:07:25;12.50;;;6.33;;
80307;SDS011;69616;43.522;1.348;2024-03-23T02:09:51;13.82;;;5.55;;
80307;SDS011;69616;43.522;1.348;2024-03-23T02:12:17;12.00;;;5.80;;
80307;SDS011;69616;43.522;1.348;2024-03-23T02:14:43;12.40;;;5.13;;
80307;SDS011;69616;43.522;1.348;2024-03-23T02:17:08;11.13;;;5.30;;
80307;SDS011;69616;43.522;1.348;2024-03-23T02:19:34;13.82;;;6.25;;
80307;SDS011;69616;43.522;1.348;2024-03-23T02:21:59;13.50;;;5.13;;
80307;SDS011;69616;43.522;1.348;2024-03-23T02:24:24;11.82;;;5.90;;
80307;SDS011;69616;43.522;1.348;2024-03-23T02:26:50;13.07;;;5.70;;
80307;SDS011;69616;43.522;1.348;2024-03-23T02:29:15;12.00;;;5.10;;
80307;SDS011;69616;43.522;1.348;2024-03-23T02:31:41;12.73;;;5.00;;
80307;SDS011;69616;43.522;1.348;2024-03-23T02:34:07;11.75;;;5.35;;
80307;SDS011;69616;43.522;1.348;2024-03-23T02:36:32;11.67;;;5.07;;
80307;SDS011;69616;43.522;1.348;2024-03-23T02:38:57;12.80;;;5.43;;
80307;SDS011;69616;43.522;1.348;2024-03-23T02:41:23;12.95;;;5.75;;
80307;SDS011;69616;43.522;1.348;2024-03-23T02:43:49;9.50;;;4.90;;
80307;SDS011;69616;43.522;1.348;2024-03-23T02:46:15;12.63;;;5.10;;
80307;SDS011;69616;43.522;1.348;2024-03-23T02:48:40;15.00;;;5.07;;
80307;SDS011;69616;43.522;1.348;2024-03-23T02:51:05;11.30;;;4.90;;
80307;SDS011;69616;43.522;1.348;2024-03-23T02:53:31;12.80;;;4.93;;
80307;SDS011;69616;43.522;1.348;2024-03-23T02:55:57;11.27;;;3.77;;
80307;SDS011;69616;43.522;1.348;2024-03-23T02:58:23;11.00;;;4.07;;
80307;SDS011;69616;43.522;1.348;2024-03-23T03:00:48;8.43;;;3.40;;
80307;SDS011;69616;43.522;1.348;2024-03-23T03:03:14;9.33;;;3.47;;
80307;SDS011;69616;43.522;1.348;2024-03-23T03:05:39;8.43;;;3.40;;
80307;SDS011;69616;43.522;1.348;2024-03-23T03:08:05;9.97;;;3.70;;
80307;SDS011;69616;43.522;1.348;2024-03-23T03:10:30;7.60;;;3.10;;
80307;SDS011;69616;43.522;1.348;2024-03-23T03:12:59;10.83;;;3.63;;
80307;SDS011;69616;43.522;1.348;2024-03-23T03:15:25;8.40;;;3.10;;
80307;SDS011;69616;43.522;1.348;2024-03-23T03:17:50;8.67;;;3.37;;
80307;SDS011;69616;43.522;1.348;2024-03-23T03:20:16;10.67;;;3.63;;
80307;SDS011;69616;43.522;1.348;2024-03-23T03:22:42;8.23;;;3.50;;
80307;SDS011;69616;43.522;1.348;2024-03-23T03:25:08;7.83;;;3.17;;
80307;SDS011;69616;43.522;1.348;2024-03-23T03:27:33;10.27;;;3.47;;
80307;SDS011;69616;43.522;1.348;2024-03-23T03:29:59;10.07;;;3.60;;
80307;SDS011;69616;43.522;1.348;2024-03-23T03:32:28;11.60;;;3.33;;
80307;SDS011;69616;43.522;1.348;2024-03-23T03:34:57;8.57;;;3.33;;
80307;SDS011;69616;43.522;1.348;2024-03-23T03:37:22;9.43;;;3.20;;
80307;SDS011;69616;43.522;1.348;2024-03-23T03:39:48;8.83;;;3.03;;
80307;SDS011;69616;43.522;1.348;2024-03-23T03:42:13;11.30;;;3.30;;
80307;SDS011;69616;43.522;1.348;2024-03-23T03:44:39;8.45;;;3.05;;
80307;SDS011;69616;43.522;1.348;2024-03-23T03:47:05;11.60;;;3.10;;
80307;SDS011;69616;43.522;1.348;2024-03-23T03:49:30;13.95;;;3.30;;
80307;SDS011;69616;43.522;1.348;2024-03-23T03:51:56;13.57;;;3.13;;
80307;SDS011;69616;43.522;1.348;2024-03-23T03:54:21;12.67;;;2.97;;
80307;SDS011;69616;43.522;1.348;2024-03-23T03:56:47;12.47;;;2.80;;
80307;SDS011;69616;43.522;1.348;2024-03-23T03:59:12;8.77;;;2.70;;
80307;SDS011;69616;43.522;1.348;2024-03-23T04:01:38;9.90;;;2.80;;
80307;SDS011;69616;43.522;1.348;2024-03-23T04:04:03;9.47;;;2.70;;
80307;SDS011;69616;43.522;1.348;2024-03-23T04:06:29;9.27;;;2.40;;
80307;SDS011;69616;43.522;1.348;2024-03-23T04:08:54;7.67;;;2.70;;
80307;SDS011;69616;43.522;1.348;2024-03-23T04:11:19;11.20;;;2.35;;
80307;SDS011;69616;43.522;1.348;2024-03-23T04:13:45;9.73;;;2.23;;
80307;SDS011;69616;43.522;1.348;2024-03-23T04:16:10;10.53;;;2.53;;
80307;SDS011;69616;43.522;1.348;2024-03-23T04:18:36;7.47;;;2.10;;
80307;SDS011;69616;43.522;1.348;2024-03-23T04:21:01;12.18;;;2.20;;
80307;SDS011;69616;43.522;1.348;2024-03-23T04:23:26;9.50;;;2.40;;
80307;SDS011;69616;43.522;1.348;2024-03-23T04:25:52;8.07;;;2.20;;
80307;SDS011;69616;43.522;1.348;2024-03-23T04:28:18;10.50;;;2.28;;
80307;SDS011;69616;43.522;1.348;2024-03-23T04:30:44;9.25;;;2.20;;
80307;SDS011;69616;43.522;1.348;2024-03-23T04:33:10;7.37;;;1.93;;
80307;SDS011;69616;43.522;1.348;2024-03-23T04:35:35;9.37;;;2.17;;
80307;SDS011;69616;43.522;1.348;2024-03-23T04:38:00;10.90;;;2.37;;
80307;SDS011;69616;43.522;1.348;2024-03-23T04:40:26;9.63;;;2.42;;
80307;SDS011;69616;43.522;1.348;2024-03-23T04:42:51;10.13;;;3.00;;
80307;SDS011;69616;43.522;1.348;2024-03-23T04:45:17;9.83;;;2.30;;
80307;SDS011;69616;43.522;1.348;2024-03-23T04:47:42;6.53;;;2.00;;
80307;SDS011;69616;43.522;1.348;2024-03-23T04:50:08;10.38;;;2.28;;
80307;SDS011;69616;43.522;1.348;2024-03-23T04:52:35;11.48;;;2.33;;
80307;SDS011;69616;43.522;1.348;2024-03-23T04:55:01;10.00;;;1.93;;
80307;SDS011;69616;43.522;1.348;2024-03-23T04:57:26;9.80;;;2.40;;
80307;SDS011;69616;43.522;1.348;2024-03-23T04:59:51;9.93;;;2.33;;
80307;SDS011;69616;43.522;1.348;2024-03-23T05:02:17;10.03;;;2.80;;
80307;SDS011;69616;43.522;1.348;2024-03-23T05:04:42;9.18;;;2.10;;
80307;SDS011;69616;43.522;1.348;2024-03-23T05:07:08;10.90;;;2.00;;
80307;SDS011;69616;43.522;1.348;2024-03-23T05:09:33;9.60;;;2.20;;
80307;SDS011;69616;43.522;1.348;2024-03-23T05:11:59;10.68;;;2.17;;
80307;SDS011;69616;43.522;1.348;2024-03-23T05:14:28;8.13;;;2.10;;
80307;SDS011;69616;43.522;1.348;2024-03-23T05:16:53;12.43;;;2.10;;
80307;SDS011;69616;43.522;1.348;2024-03-23T05:19:19;7.73;;;1.93;;
80307;SDS011;69616;43.522;1.348;2024-03-23T05:21:44;9.67;;;2.43;;
80307;SDS011;69616;43.522;1.348;2024-03-23T05:24:10;6.93;;;1.85;;
80307;SDS011;69616;43.522;1.348;2024-03-23T05:26:37;8.27;;;1.92;;
80307;SDS011;69616;43.522;1.348;2024-03-23T05:29:02;7.03;;;1.90;;
80307;SDS011;69616;43.522;1.348;2024-03-23T05:31:29;7.53;;;1.83;;
80307;SDS011;69616;43.522;1.348;2024-03-23T05:33:55;9.70;;;1.88;;
80307;SDS011;69616;43.522;1.348;2024-03-23T05:36:21;8.30;;;2.00;;
80307;SDS011;69616;43.522;1.348;2024-03-23T05:38:46;6.80;;;1.98;;
80307;SDS011;69616;43.522;1.348;2024-03-23T05:41:12;5.37;;;2.00;;
80307;SDS011;69616;43.522;1.348;2024-03-23T05:43:37;9.13;;;2.00;;
80307;SDS011;69616;43.522;1.348;2024-03-23T05:46:03;7.90;;;2.00;;
80307;SDS011;69616;43.522;1.348;2024-03-23T05:48:30;6.93;;;1.65;;
80307;SDS011;69616;43.522;1.348;2024-03-23T05:50:56;10.07;;;2.15;;
80307;SDS011;69616;43.522;1.348;2024-03-23T05:53:22;7.13;;;2.00;;
80307;SDS011;69616;43.522;1.348;2024-03-23T05:55:48;11.87;;;1.90;;
80307;SDS011;69616;43.522;1.348;2024-03-23T05:58:14;7.10;;;1.83;;
80307;SDS011;69616;43.522;1.348;2024-03-23T06:00:41;9.32;;;2.10;;
80307;SDS011;69616;43.522;1.348;2024-03-23T06:03:08;8.13;;;2.05;;
80307;SDS011;69616;43.522;1.348;2024-03-23T06:05:35;8.15;;;2.30;;
80307;SDS011;69616;43.522;1.348;2024-03-23T06:08:01;7.10;;;2.10;;
80307;SDS011;69616;43.522;1.348;2024-03-23T06:10:27;7.35;;;1.65;;
80307;SDS011;69616;43.522;1.348;2024-03-23T06:12:53;6.23;;;1.67;;
80307;SDS011;69616;43.522;1.348;2024-03-23T06:15:18;12.27;;;1.73;;
80307;SDS011;69616;43.522;1.348;2024-03-23T06:17:44;7.90;;;2.17;;
80307;SDS011;69616;43.522;1.348;2024-03-23T06:20:10;6.90;;;1.80;;
80307;SDS011;69616;43.522;1.348;2024-03-23T06:22:35;10.83;;;1.93;;
80307;SDS011;69616;43.522;1.348;2024-03-23T06:25:01;6.10;;;1.53;;
80307;SDS011;69616;43.522;1.348;2024-03-23T06:27:26;6.60;;;1.60;;
80307;SDS011;69616;43.522;1.348;2024-03-23T06:29:51;7.60;;;1.80;;
80307;SDS011;69616;43.522;1.348;2024-03-23T06:32:17;9.73;;;1.80;;
80307;SDS011;69616;43.522;1.348;2024-03-23T06:34:43;8.40;;;1.75;;
80307;SDS011;69616;43.522;1.348;2024-03-23T06:37:09;10.40;;;1.90;;
80307;SDS011;69616;43.522;1.348;2024-03-23T06:39:37;9.13;;;1.48;;
80307;SDS011;69616;43.522;1.348;2024-03-23T06:42:03;8.10;;;1.80;;
80307;SDS011;69616;43.522;1.348;2024-03-23T06:44:29;8.57;;;1.97;;
80307;SDS011;69616;43.522;1.348;2024-03-23T06:46:55;10.75;;;1.67;;
80307;SDS011;69616;43.522;1.348;2024-03-23T06:49:20;7.10;;;1.50;;
80307;SDS011;69616;43.522;1.348;2024-03-23T06:51:46;7.97;;;1.47;;
80307;SDS011;69616;43.522;1.348;2024-03-23T06:54:11;6.40;;;1.60;;
80307;SDS011;69616;43.522;1.348;2024-03-23T06:56:37;10.93;;;1.58;;
80307;SDS011;69616;43.522;1.348;2024-03-23T06:59:02;9.47;;;2.20;;
80307;SDS011;69616;43.522;1.348;2024-03-23T07:01:28;7.83;;;1.70;;
80307;SDS011;69616;43.522;1.348;2024-03-23T07:03:56;8.68;;;2.00;;
80307;SDS011;69616;43.522;1.348;2024-03-23T07:06:23;9.10;;;1.92;;
80307;SDS011;69616;43.522;1.348;2024-03-23T07:08:48;6.00;;;1.50;;
80307;SDS011;69616;43.522;1.348;2024-03-23T07:11:20;8.00;;;1.83;;
80307;SDS011;69616;43.522;1.348;2024-03-23T07:13:46;7.80;;;2.53;;
80307;SDS011;69616;43.522;1.348;2024-03-23T07:16:14;9.25;;;2.30;;
80307;SDS011;69616;43.522;1.348;2024-03-23T07:18:39;8.03;;;2.00;;
80307;SDS011;69616;43.522;1.348;2024-03-23T07:21:05;9.83;;;2.53;;
80307;SDS011;69616;43.522;1.348;2024-03-23T07:23:31;9.90;;;1.80;;
80307;SDS011;69616;43.522;1.348;2024-03-23T07:28:23;8.80;;;1.80;;
80307;SDS011;69616;43.522;1.348;2024-03-23T07:30:48;8.57;;;2.30;;
80307;SDS011;69616;43.522;1.348;2024-03-23T07:33:23;10.57;;;2.05;;
80307;SDS011;69616;43.522;1.348;2024-03-23T07:35:48;4.20;;;0.80;;
80307;SDS011;69616;43.522;1.348;2024-03-23T07:38:14;3.77;;;0.80;;
80307;SDS011;69616;43.522;1.348;2024-03-23T07:40:39;3.43;;;0.60;;
80307;SDS011;69616;43.522;1.348;2024-03-23T07:43:05;3.88;;;0.50;;
80307;SDS011;69616;43.522;1.348;2024-03-23T07:45:30;3.07;;;0.63;;
80307;SDS011;69616;43.522;1.348;2024-03-23T07:47:56;6.40;;;0.83;;
80307;SDS011;69616;43.522;1.348;2024-03-23T07:50:21;2.97;;;0.60;;
80307;SDS011;69616;43.522;1.348;2024-03-23T07:52:46;5.70;;;0.77;;
80307;SDS011;69616;43.522;1.348;2024-03-23T07:55:12;2.50;;;0.40;;
80307;SDS011;69616;43.522;1.348;2024-03-23T07:57:37;7.37;;;0.63;;
80307;SDS011;69616;43.522;1.348;2024-03-23T08:00:02;6.20;;;0.50;;
80307;SDS011;69616;43.522;1.348;2024-03-23T08:02:28;7.15;;;1.13;;
80307;SDS011;69616;43.522;1.348;2024-03-23T08:04:54;5.30;;;0.60;;
80307;SDS011;69616;43.522;1.348;2024-03-23T08:07:19;5.90;;;0.47;;
80307;SDS011;69616;43.522;1.348;2024-03-23T08:09:44;7.22;;;0.70;;
80307;SDS011;69616;43.522;1.348;2024-03-23T08:12:10;7.07;;;0.80;;
80307;SDS011;69616;43.522;1.348;2024-03-23T08:14:35;7.90;;;0.67;;
80307;SDS011;69616;43.522;1.348;2024-03-23T08:17:00;10.03;;;1.00;;
80307;SDS011;69616;43.522;1.348;2024-03-23T08:19:26;7.47;;;1.00;;
80307;SDS011;69616;43.522;1.348;2024-03-23T08:21:51;6.88;;;1.13;;
80307;SDS011;69616;43.522;1.348;2024-03-23T08:24:17;7.30;;;1.10;;
80307;SDS011;69616;43.522;1.348;2024-03-23T08:26:42;6.90;;;0.70;;
80307;SDS011;69616;43.522;1.348;2024-03-23T08:29:07;5.77;;;0.73;;
80307;SDS011;69616;43.522;1.348;2024-03-23T08:31:33;6.90;;;0.80;;
80307;SDS011;69616;43.522;1.348;2024-03-23T08:33:58;9.63;;;1.08;;
80307;SDS011;69616;43.522;1.348;2024-03-23T08:36:23;11.37;;;1.07;;
80307;SDS011;69616;43.522;1.348;2024-03-23T08:38:49;10.33;;;1.33;;
80307;SDS011;69616;43.522;1.348;2024-03-23T08:41:15;9.05;;;0.85;;
80307;SDS011;69616;43.522;1.348;2024-03-23T08:43:41;10.70;;;1.20;;
80307;SDS011;69616;43.522;1.348;2024-03-23T08:46:14;7.43;;;0.98;;
80307;SDS011;69616;43.522;1.348;2024-03-23T08:48:41;8.75;;;1.10;;
80307;SDS011;69616;43.522;1.348;2024-03-23T08:51:09;10.63;;;1.15;;
80307;SDS011;69616;43.522;1.348;2024-03-23T08:53:35;9.47;;;0.90;;
80307;SDS011;69616;43.522;1.348;2024-03-23T08:56:01;12.25;;;0.95;;
80307;SDS011;69616;43.522;1.348;2024-03-23T08:58:28;10.05;;;1.10;;
80307;SDS011;69616;43.522;1.348;2024-03-23T09:00:54;9.60;;;1.30;;
80307;SDS011;69616;43.522;1.348;2024-03-23T09:03:24;10.27;;;1.03;;
80307;SDS011;69616;43.522;1.348;2024-03-23T09:05:50;12.00;;;1.23;;
80307;SDS011;69616;43.522;1.348;2024-03-23T09:08:16;10.82;;;0.95;;
80307;SDS011;69616;43.522;1.348;2024-03-23T09:10:42;10.23;;;1.10;;
80307;SDS011;69616;43.522;1.348;2024-03-23T09:13:08;12.48;;;1.48;;
80307;SDS011;69616;43.522;1.348;2024-03-23T09:15:34;13.50;;;1.55;;
80307;SDS011;69616;43.522;1.348;2024-03-23T09:18:00;10.75;;;1.15;;
80307;SDS011;69616;43.522;1.348;2024-03-23T09:20:26;9.50;;;1.27;;
80307;SDS011;69616;43.522;1.348;2024-03-23T09:22:51;12.37;;;1.27;;
80307;SDS011;69616;43.522;1.348;2024-03-23T09:25:17;6.82;;;0.93;;
80307;SDS011;69616;43.522;1.348;2024-03-23T09:27:42;10.27;;;1.10;;
80307;SDS011;69616;43.522;1.348;2024-03-23T09:30:07;9.93;;;1.27;;
80307;SDS011;69616;43.522;1.348;2024-03-23T09:32:35;12.50;;;1.23;;
80307;SDS011;69616;43.522;1.348;2024-03-23T09:35:00;10.47;;;0.90;;
80307;SDS011;69616;43.522;1.348;2024-03-23T09:37:25;9.33;;;1.20;;
80307;SDS011;69616;43.522;1.348;2024-03-23T09:39:51;10.37;;;1.13;;
80307;SDS011;69616;43.522;1.348;2024-03-23T09:42:16;8.85;;;0.93;;
80307;SDS011;69616;43.522;1.348;2024-03-23T09:44:42;11.53;;;1.00;;
80307;SDS011;69616;43.522;1.348;2024-03-23T09:47:08;12.32;;;1.23;;
80307;SDS011;69616;43.522;1.348;2024-03-23T09:49:33;14.67;;;1.20;;
80307;SDS011;69616;43.522;1.348;2024-03-23T09:52:01;10.40;;;1.05;;
80307;SDS011;69616;43.522;1.348;2024-03-23T09:54:27;9.23;;;0.80;;
80307;SDS011;69616;43.522;1.348;2024-03-23T09:56:53;12.10;;;1.52;;
80307;SDS011;69616;43.522;1.348;2024-03-23T09:59:18;9.17;;;1.00;;
80307;SDS011;69616;43.522;1.348;2024-03-23T10:01:44;8.13;;;0.80;;
80307;SDS011;69616;43.522;1.348;2024-03-23T10:04:09;10.00;;;1.30;;
80307;SDS011;69616;43.522;1.348;2024-03-23T10:06:35;11.03;;;1.30;;
80307;SDS011;69616;43.522;1.348;2024-03-23T10:09:01;13.85;;;1.13;;
80307;SDS011;69616;43.522;1.348;2024-03-23T10:11:27;7.97;;;0.97;;
80307;SDS011;69616;43.522;1.348;2024-03-23T10:13:54;12.30;;;1.23;;
80307;SDS011;69616;43.522;1.348;2024-03-23T10:16:22;7.70;;;0.80;;
80307;SDS011;69616;43.522;1.348;2024-03-23T10:18:48;5.07;;;1.25;;
80307;SDS011;69616;43.522;1.348;2024-03-23T10:21:14;9.27;;;1.10;;
80307;SDS011;69616;43.522;1.348;2024-03-23T10:23:41;9.02;;;1.65;;
80307;SDS011;69616;43.522;1.348;2024-03-23T10:26:21;12.10;;;1.02;;
80307;SDS011;69616;43.522;1.348;2024-03-23T10:31:33;9.85;;;1.00;;
80307;SDS011;69616;43.522;1.348;2024-03-23T10:34:00;7.33;;;0.87;;
80307;SDS011;69616;43.522;1.348;2024-03-23T10:36:26;7.53;;;1.10;;
80307;SDS011;69616;43.522;1.348;2024-03-23T10:38:52;9.10;;;0.90;;
80307;SDS011;69616;43.522;1.348;2024-03-23T10:41:19;7.18;;;0.90;;
80307;SDS011;69616;43.522;1.348;2024-03-23T10:43:48;8.97;;;0.90;;
80307;SDS011;69616;43.522;1.348;2024-03-23T10:46:14;10.15;;;1.25;;
80307;SDS011;69616;43.522;1.348;2024-03-23T10:48:40;9.05;;;1.00;;
80307;SDS011;69616;43.522;1.348;2024-03-23T10:51:07;8.73;;;0.80;;
80307;SDS011;69616;43.522;1.348;2024-03-23T10:53:33;9.18;;;1.40;;
80307;SDS011;69616;43.522;1.348;2024-03-23T10:56:00;14.90;;;1.10;;
80307;SDS011;69616;43.522;1.348;2024-03-23T11:01:03;10.20;;;0.98;;
80307;SDS011;69616;43.522;1.348;2024-03-23T11:03:29;6.90;;;1.27;;
80307;SDS011;69616;43.522;1.348;2024-03-23T11:05:55;10.73;;;1.27;;
80307;SDS011;69616;43.522;1.348;2024-03-23T11:08:37;6.03;;;0.98;;
80307;SDS011;69616;43.522;1.348;2024-03-23T11:13:59;7.65;;;0.90;;
80307;SDS011;69616;43.522;1.348;2024-03-23T11:16:25;6.20;;;0.80;;
80307;SDS011;69616;43.522;1.348;2024-03-23T11:22:01;5.13;;;0.88;;
80307;SDS011;69616;43.522;1.348;2024-03-23T11:24:27;5.32;;;0.80;;
80307;SDS011;69616;43.522;1.348;2024-03-23T11:26:52;6.60;;;0.87;;
80307;SDS011;69616;43.522;1.348;2024-03-23T11:29:18;4.23;;;0.63;;
80307;SDS011;69616;43.522;1.348;2024-03-23T11:31:47;5.55;;;0.70;;
80307;SDS011;69616;43.522;1.348;2024-03-23T11:34:17;8.33;;;0.80;;
80307;SDS011;69616;43.522;1.348;2024-03-23T11:36:44;5.45;;;0.75;;
80307;SDS011;69616;43.522;1.348;2024-03-23T11:41:45;6.13;;;0.70;;
80307;SDS011;69616;43.522;1.348;2024-03-23T11:44:28;6.38;;;0.60;;
80307;SDS011;69616;43.522;1.348;2024-03-23T11:46:54;4.87;;;0.60;;
80307;SDS011;69616;43.522;1.348;2024-03-23T11:49:33;7.60;;;0.90;;
80307;SDS011;69616;43.522;1.348;2024-03-23T11:51:58;8.07;;;0.90;;
80307;SDS011;69616;43.522;1.348;2024-03-23T11:54:25;8.48;;;1.58;;
80307;SDS011;69616;43.522;1.348;2024-03-23T11:56:55;5.82;;;0.77;;
80307;SDS011;69616;43.522;1.348;2024-03-23T11:59:36;8.48;;;1.48;;
80307;SDS011;69616;43.522;1.348;2024-03-23T12:02:09;7.15;;;1.25;;
80307;SDS011;69616;43.522;1.348;2024-03-23T12:04:41;9.03;;;3.20;;
80307;SDS011;69616;43.522;1.348;2024-03-23T12:07:11;8.10;;;1.40;;
80307;SDS011;69616;43.522;1.348;2024-03-23T12:09:37;4.47;;;0.80;;
80307;SDS011;69616;43.522;1.348;2024-03-23T12:12:16;5.05;;;0.70;;
80307;SDS011;69616;43.522;1.348;2024-03-23T12:14:46;6.90;;;0.70;;
80307;SDS011;69616;43.522;1.348;2024-03-23T12:17:27;6.60;;;0.90;;
80307;SDS011;69616;43.522;1.348;2024-03-23T12:19:52;6.23;;;0.60;;
80307;SDS011;69616;43.522;1.348;2024-03-23T12:22:21;5.63;;;0.65;;
80307;SDS011;69616;43.522;1.348;2024-03-23T12:24:47;4.70;;;0.63;;
80307;SDS011;69616;43.522;1.348;2024-03-23T12:27:12;6.70;;;0.70;;
80307;SDS011;69616;43.522;1.348;2024-03-23T12:29:38;6.23;;;0.70;;
80307;SDS011;69616;43.522;1.348;2024-03-23T12:32:04;5.75;;;0.70;;
80307;SDS011;69616;43.522;1.348;2024-03-23T12:34:30;5.85;;;0.52;;
80307;SDS011;69616;43.522;1.348;2024-03-23T12:36:56;4.90;;;0.57;;
80307;SDS011;69616;43.522;1.348;2024-03-23T12:39:22;5.65;;;0.60;;
80307;SDS011;69616;43.522;1.348;2024-03-23T12:41:47;3.70;;;0.60;;
80307;SDS011;69616;43.522;1.348;2024-03-23T12:44:13;5.53;;;0.75;;
80307;SDS011;69616;43.522;1.348;2024-03-23T12:46:40;4.00;;;0.50;;
80307;SDS011;69616;43.522;1.348;2024-03-23T12:49:06;6.82;;;0.50;;
80307;SDS011;69616;43.522;1.348;2024-03-23T12:51:32;6.03;;;0.60;;
80307;SDS011;69616;43.522;1.348;2024-03-23T12:53:58;3.70;;;0.40;;
80307;SDS011;69616;43.522;1.348;2024-03-23T12:56:23;5.53;;;0.60;;
80307;SDS011;69616;43.522;1.348;2024-03-23T12:58:49;5.05;;;0.70;;
80307;SDS011;69616;43.522;1.348;2024-03-23T13:01:16;5.55;;;0.60;;
80307;SDS011;69616;43.522;1.348;2024-03-23T13:03:42;6.80;;;0.70;;
80307;SDS011;69616;43.522;1.348;2024-03-23T13:06:09;5.85;;;0.60;;
80307;SDS011;69616;43.522;1.348;2024-03-23T13:08:35;7.40;;;1.00;;
80307;SDS011;69616;43.522;1.348;2024-03-23T13:11:00;6.40;;;0.60;;
80307;SDS011;69616;43.522;1.348;2024-03-23T13:13:26;5.50;;;0.60;;
80307;SDS011;69616;43.522;1.348;2024-03-23T13:15:51;6.33;;;0.70;;
80307;SDS011;69616;43.522;1.348;2024-03-23T13:18:16;5.83;;;0.70;;
80307;SDS011;69616;43.522;1.348;2024-03-23T13:20:42;5.57;;;0.80;;
80307;SDS011;69616;43.522;1.348;2024-03-23T13:23:07;7.40;;;1.30;;
80307;SDS011;69616;43.522;1.348;2024-03-23T13:25:33;5.78;;;0.85;;
80307;SDS011;69616;43.522;1.348;2024-03-23T13:27:59;7.40;;;1.00;;
80307;SDS011;69616;43.522;1.348;2024-03-23T13:30:24;8.17;;;0.90;;
80307;SDS011;69616;43.522;1.348;2024-03-23T13:32:50;5.93;;;0.60;;
80307;SDS011;69616;43.522;1.348;2024-03-23T13:35:15;7.03;;;0.90;;
80307;SDS011;69616;43.522;1.348;2024-03-23T13:37:41;8.27;;;0.70;;
80307;SDS011;69616;43.522;1.348;2024-03-23T13:40:07;6.95;;;0.68;;
80307;SDS011;69616;43.522;1.348;2024-03-23T13:42:33;8.35;;;0.90;;
80307;SDS011;69616;43.522;1.348;2024-03-23T13:44:58;6.83;;;0.80;;
80307;SDS011;69616;43.522;1.348;2024-03-23T13:47:23;9.57;;;1.00;;
80307;SDS011;69616;43.522;1.348;2024-03-23T13:49:49;7.20;;;0.70;;
80307;SDS011;69616;43.522;1.348;2024-03-23T13:52:14;7.60;;;1.17;;
80307;SDS011;69616;43.522;1.348;2024-03-23T13:54:39;8.03;;;0.97;;
80307;SDS011;69616;43.522;1.348;2024-03-23T13:57:10;7.23;;;0.67;;
80307;SDS011;69616;43.522;1.348;2024-03-23T13:59:35;6.63;;;0.80;;
80307;SDS011;69616;43.522;1.348;2024-03-23T14:02:01;8.27;;;1.30;;
80307;SDS011;69616;43.522;1.348;2024-03-23T14:04:26;6.60;;;0.70;;
80307;SDS011;69616;43.522;1.348;2024-03-23T14:06:52;6.33;;;0.80;;
80307;SDS011;69616;43.522;1.348;2024-03-23T14:09:17;7.77;;;0.90;;
80307;SDS011;69616;43.522;1.348;2024-03-23T14:11:46;8.07;;;1.00;;
80307;SDS011;69616;43.522;1.348;2024-03-23T14:14:12;8.48;;;1.00;;
80307;SDS011;69616;43.522;1.348;2024-03-23T14:16:37;8.27;;;0.87;;
80307;SDS011;69616;43.522;1.348;2024-03-23T14:19:03;5.28;;;0.85;;
80307;SDS011;69616;43.522;1.348;2024-03-23T14:21:30;5.27;;;0.70;;
80307;SDS011;69616;43.522;1.348;2024-03-23T14:23:56;7.35;;;0.70;;
80307;SDS011;69616;43.522;1.348;2024-03-23T14:26:22;13.43;;;1.03;;
80307;SDS011;69616;43.522;1.348;2024-03-23T14:28:47;6.63;;;1.10;;
80307;SDS011;69616;43.522;1.348;2024-03-23T14:31:14;6.67;;;0.70;;
80307;SDS011;69616;43.522;1.348;2024-03-23T14:33:39;6.17;;;0.80;;
80307;SDS011;69616;43.522;1.348;2024-03-23T14:36:14;6.30;;;0.93;;
80307;SDS011;69616;43.522;1.348;2024-03-23T14:38:40;8.43;;;1.00;;
80307;SDS011;69616;43.522;1.348;2024-03-23T14:41:05;7.83;;;0.80;;
80307;SDS011;69616;43.522;1.348;2024-03-23T14:43:31;5.10;;;0.73;;
80307;SDS011;69616;43.522;1.348;2024-03-23T14:46:07;7.72;;;1.25;;
80307;SDS011;69616;43.522;1.348;2024-03-23T14:48:33;6.63;;;1.10;;
80307;SDS011;69616;43.522;1.348;2024-03-23T14:50:59;7.13;;;0.65;;
80307;SDS011;69616;43.522;1.348;2024-03-23T14:53:25;7.75;;;1.00;;
80307;SDS011;69616;43.522;1.348;2024-03-23T14:55:54;5.90;;;0.60;;
80307;SDS011;69616;43.522;1.348;2024-03-23T14:58:20;6.53;;;0.80;;
80307;SDS011;69616;43.522;1.348;2024-03-23T15:00:46;5.50;;;0.70;;
80307;SDS011;69616;43.522;1.348;2024-03-23T15:03:11;6.07;;;0.80;;
80307;SDS011;69616;43.522;1.348;2024-03-23T15:05:36;4.70;;;0.70;;
80307;SDS011;69616;43.522;1.348;2024-03-23T15:08:02;4.93;;;1.00;;
80307;SDS011;69616;43.522;1.348;2024-03-23T15:10:28;7.75;;;0.88;;
80307;SDS011;69616;43.522;1.348;2024-03-23T15:12:53;5.70;;;0.83;;
80307;SDS011;69616;43.522;1.348;2024-03-23T15:15:19;6.33;;;0.90;;
80307;SDS011;69616;43.522;1.348;2024-03-23T15:17:44;6.15;;;0.77;;
80307;SDS011;69616;43.522;1.348;2024-03-23T15:20:11;8.97;;;0.90;;
80307;SDS011;69616;43.522;1.348;2024-03-23T15:22:36;7.20;;;0.80;;
80307;SDS011;69616;43.522;1.348;2024-03-23T15:25:02;6.63;;;0.85;;
80307;SDS011;69616;43.522;1.348;2024-03-23T15:27:28;8.30;;;0.90;;
80307;SDS011;69616;43.522;1.348;2024-03-23T15:29:53;4.63;;;0.63;;
80307;SDS011;69616;43.522;1.348;2024-03-23T15:32:22;7.13;;;0.87;;
80307;SDS011;69616;43.522;1.348;2024-03-23T15:34:48;5.90;;;0.80;;
80307;SDS011;69616;43.522;1.348;2024-03-23T15:37:13;5.00;;;0.67;;
80307;SDS011;69616;43.522;1.348;2024-03-23T15:39:39;8.32;;;0.80;;
80307;SDS011;69616;43.522;1.348;2024-03-23T15:42:06;7.22;;;0.77;;
80307;SDS011;69616;43.522;1.348;2024-03-23T15:44:32;5.00;;;0.50;;
80307;SDS011;69616;43.522;1.348;2024-03-23T15:46:57;8.18;;;0.90;;